East Smethport, Pennsylvania
Current Conditions -  °F | °C
As of 3:53 AM on Wednesday 22 Oct 2014 (Local Time) from KBFD Reporting Station
Overcast Overcast  
Wind Chill: 37°   Ceiling: 400
Heat Index: 42°   Visibility: 10mi
Dew Point: 40°   Wind: 8mph
Humidity: 92%   Direction: 20°NNE
Pressure: 30.03"   Gusts: NA
Location:  41.81°N, 78.42°W
Report Text: KBFD 220753Z AUTO 02007KT 10SM OVC004 06/04 A3003 RMK AO2 SLP174 T00560044
Loading
Personal Weather Stations






























Interactive Weather Map New forecast layout! Learn more

10-Day Weather Forecast

Advertisements
Track Severe Weather on mobile